NCAR-RAP Real-Time Weather Data

Output produced by METARs form (10 April 2020  07:22 UTC)
found at http://weather.rap.ucar.edu/surface/
 
KABQ 100652Z 17005KT 10SM FEW120 12/M11 A3006 RMK AO2 SLP121 T01221106 402280111
KABQ 100552Z 18011KT 10SM FEW130 13/M09 A3005 RMK AO2 SLP115 T01331089 10222 20133 51021
KABQ 100452Z 18013KT 10SM SCT140 15/M08 A3003 RMK AO2 SLP109 T01501083
KABQ 100352Z 18014KT 10SM SCT120 17/M08 A3000 RMK AO2 SLP100 T01671083
KABQ 100252Z 18013KT 10SM SCT120 17/M06 A2997 RMK AO2 SLP094 T01721061 53014
KABQ 100152Z 18008KT 10SM SCT120 19/M07 A2994 RMK AO2 SLP079 T01891072
KABQ 100052Z COR 17008KT 10SM SCT120 22/M08 A2993 RMK AO2 SLP071 T02171083
KABQ 092352Z 20007G19KT 10SM SCT120 22/M07 A2993 RMK AO2 SLP072 T02221067 10228 20194 56015
KABQ 092252Z 19006G18KT 10SM SCT110 22/M06 A2994 RMK AO2 SLP074 T02171061
KABQ 092152Z 23003KT 10SM FEW110 22/M07 A2995 RMK AO2 SLP078 T02171072
KABQ 092052Z 22010G16KT 10SM FEW110 22/M07 A2998 RMK AO2 SLP085 T02171072 58024
KABQ 091952Z 22008G17KT 10SM FEW110 22/M08 A3001 RMK AO2 SLP097 T02171078
KABQ 091852Z 17007G18KT 080V220 10SM FEW100 FEW250 21/M06 A3004 RMK AO2 SLP106 T02061061
KABQ 091752Z 16006G17KT 10SM FEW080 FEW250 19/M06 A3006 RMK AO2 SLP115 T01941056 10200 20111 58009
KABQ 091652Z 20011G16KT 10SM FEW070 SCT200 18/M01 A3008 RMK AO2 SLP130 T01831006
KABQ 091552Z 21007KT 10SM FEW070 SCT200 17/01 A3009 RMK AO2 SLP131 T01670006
KABQ 091452Z 30003KT 10SM FEW090 BKN200 14/00 A3010 RMK AO2 SLP136 T01390000 51010
KABQ 091352Z 14006KT 10SM FEW090 BKN160 13/M01 A3008 RMK AO2 SLP128 T01281011
KABQ 091252Z 13003KT 10SM FEW110 BKN180 12/M02 A3007 RMK AO2 SLP123 T01221017
KABQ 091152Z 12006KT 10SM FEW110 OVC200 12/M02 A3006 RMK AO2 SLP118 T01171022 10172 20117 55001
KABQ 091052Z 10005KT 10SM BKN210 OVC250 13/M02 A3005 RMK AO2 SLP115 T01281022
KABQ 090952Z 00000KT 10SM BKN210 OVC270 13/M03 A3005 RMK AO2 SLP111 T01331028